sensor_id;sensor_type;location;lat;lon;timestamp;P1;durP1;ratioP1;P2;durP2;ratioP2
21519;SDS011;10921;53.614;9.882;2023-05-07T00:00:20;25.33;;;22.83;;
21519;SDS011;10921;53.614;9.882;2023-05-07T00:02:46;27.88;;;24.88;;
21519;SDS011;10921;53.614;9.882;2023-05-07T00:05:13;26.70;;;24.05;;
21519;SDS011;10921;53.614;9.882;2023-05-07T00:07:41;26.35;;;23.75;;
21519;SDS011;10921;53.614;9.882;2023-05-07T00:10:08;25.42;;;22.70;;
21519;SDS011;10921;53.614;9.882;2023-05-07T00:12:35;25.30;;;22.63;;
21519;SDS011;10921;53.614;9.882;2023-05-07T00:15:02;25.60;;;23.02;;
21519;SDS011;10921;53.614;9.882;2023-05-07T00:17:29;25.63;;;23.10;;
21519;SDS011;10921;53.614;9.882;2023-05-07T00:19:56;28.10;;;24.08;;
21519;SDS011;10921;53.614;9.882;2023-05-07T00:22:23;27.05;;;24.30;;
21519;SDS011;10921;53.614;9.882;2023-05-07T00:24:49;31.33;;;24.75;;
21519;SDS011;10921;53.614;9.882;2023-05-07T00:27:16;28.02;;;25.13;;
21519;SDS011;10921;53.614;9.882;2023-05-07T00:29:42;26.65;;;23.90;;
21519;SDS011;10921;53.614;9.882;2023-05-07T00:32:08;27.83;;;24.92;;
21519;SDS011;10921;53.614;9.882;2023-05-07T00:34:35;27.30;;;24.50;;
21519;SDS011;10921;53.614;9.882;2023-05-07T00:37:02;26.90;;;24.10;;
21519;SDS011;10921;53.614;9.882;2023-05-07T00:39:32;27.83;;;24.90;;
21519;SDS011;10921;53.614;9.882;2023-05-07T00:41:58;27.45;;;24.50;;
21519;SDS011;10921;53.614;9.882;2023-05-07T00:44:26;28.25;;;25.02;;
21519;SDS011;10921;53.614;9.882;2023-05-07T00:46:54;26.80;;;24.10;;
21519;SDS011;10921;53.614;9.882;2023-05-07T00:49:24;31.73;;;27.10;;
21519;SDS011;10921;53.614;9.882;2023-05-07T00:52:03;29.10;;;26.08;;
21519;SDS011;10921;53.614;9.882;2023-05-07T00:54:30;26.95;;;24.13;;
21519;SDS011;10921;53.614;9.882;2023-05-07T00:56:57;28.35;;;25.08;;
21519;SDS011;10921;53.614;9.882;2023-05-07T00:59:23;29.20;;;26.05;;
21519;SDS011;10921;53.614;9.882;2023-05-07T01:01:50;29.83;;;26.45;;
21519;SDS011;10921;53.614;9.882;2023-05-07T01:04:18;26.75;;;23.98;;
21519;SDS011;10921;53.614;9.882;2023-05-07T01:06:45;26.13;;;23.55;;
21519;SDS011;10921;53.614;9.882;2023-05-07T01:09:12;31.40;;;27.10;;
21519;SDS011;10921;53.614;9.882;2023-05-07T01:11:39;28.48;;;25.50;;
21519;SDS011;10921;53.614;9.882;2023-05-07T01:14:06;29.98;;;24.50;;
21519;SDS011;10921;53.614;9.882;2023-05-07T01:16:34;27.20;;;24.50;;
21519;SDS011;10921;53.614;9.882;2023-05-07T01:19:01;28.85;;;24.38;;
21519;SDS011;10921;53.614;9.882;2023-05-07T01:21:27;28.15;;;25.25;;
21519;SDS011;10921;53.614;9.882;2023-05-07T01:23:59;26.63;;;23.92;;
21519;SDS011;10921;53.614;9.882;2023-05-07T01:26:27;27.55;;;24.67;;
21519;SDS011;10921;53.614;9.882;2023-05-07T01:28:53;26.83;;;24.02;;
21519;SDS011;10921;53.614;9.882;2023-05-07T01:31:19;26.63;;;24.02;;
21519;SDS011;10921;53.614;9.882;2023-05-07T01:33:47;27.95;;;24.92;;
21519;SDS011;10921;53.614;9.882;2023-05-07T01:36:16;26.42;;;23.75;;
21519;SDS011;10921;53.614;9.882;2023-05-07T01:38:44;25.92;;;23.25;;
21519;SDS011;10921;53.614;9.882;2023-05-07T01:41:12;26.25;;;23.65;;
21519;SDS011;10921;53.614;9.882;2023-05-07T01:43:40;24.38;;;21.83;;
21519;SDS011;10921;53.614;9.882;2023-05-07T01:46:08;25.13;;;22.52;;
21519;SDS011;10921;53.614;9.882;2023-05-07T01:48:36;25.27;;;22.73;;
21519;SDS011;10921;53.614;9.882;2023-05-07T01:51:03;25.05;;;22.42;;
21519;SDS011;10921;53.614;9.882;2023-05-07T01:53:38;24.80;;;22.45;;
21519;SDS011;10921;53.614;9.882;2023-05-07T01:56:05;24.92;;;22.33;;
21519;SDS011;10921;53.614;9.882;2023-05-07T01:58:32;25.15;;;22.40;;
21519;SDS011;10921;53.614;9.882;2023-05-07T02:00:59;25.27;;;22.58;;
21519;SDS011;10921;53.614;9.882;2023-05-07T02:03:26;24.20;;;21.92;;
21519;SDS011;10921;53.614;9.882;2023-05-07T02:05:53;24.60;;;22.27;;
21519;SDS011;10921;53.614;9.882;2023-05-07T02:08:19;24.42;;;22.13;;
21519;SDS011;10921;53.614;9.882;2023-05-07T02:10:45;25.27;;;22.77;;
21519;SDS011;10921;53.614;9.882;2023-05-07T02:13:12;26.88;;;24.20;;
21519;SDS011;10921;53.614;9.882;2023-05-07T02:15:38;24.92;;;22.48;;
21519;SDS011;10921;53.614;9.882;2023-05-07T02:18:06;25.10;;;22.70;;
21519;SDS011;10921;53.614;9.882;2023-05-07T02:20:34;25.52;;;23.02;;
21519;SDS011;10921;53.614;9.882;2023-05-07T02:23:01;24.20;;;21.90;;
21519;SDS011;10921;53.614;9.882;2023-05-07T02:25:27;24.30;;;21.90;;
21519;SDS011;10921;53.614;9.882;2023-05-07T02:27:54;24.52;;;22.17;;
21519;SDS011;10921;53.614;9.882;2023-05-07T02:30:20;24.17;;;21.58;;
21519;SDS011;10921;53.614;9.882;2023-05-07T02:32:47;24.02;;;21.73;;
21519;SDS011;10921;53.614;9.882;2023-05-07T02:35:14;25.58;;;22.95;;
21519;SDS011;10921;53.614;9.882;2023-05-07T02:37:40;24.15;;;21.85;;
21519;SDS011;10921;53.614;9.882;2023-05-07T02:40:07;24.95;;;22.35;;
21519;SDS011;10921;53.614;9.882;2023-05-07T02:42:34;25.58;;;23.02;;
21519;SDS011;10921;53.614;9.882;2023-05-07T02:45:01;24.98;;;22.58;;
21519;SDS011;10921;53.614;9.882;2023-05-07T02:47:28;23.83;;;21.38;;
21519;SDS011;10921;53.614;9.882;2023-05-07T02:49:55;24.50;;;22.05;;
21519;SDS011;10921;53.614;9.882;2023-05-07T02:52:21;24.23;;;21.70;;
21519;SDS011;10921;53.614;9.882;2023-05-07T02:54:48;24.23;;;21.83;;
21519;SDS011;10921;53.614;9.882;2023-05-07T02:57:15;23.52;;;21.23;;
21519;SDS011;10921;53.614;9.882;2023-05-07T02:59:41;23.23;;;20.92;;
21519;SDS011;10921;53.614;9.882;2023-05-07T03:02:08;24.70;;;20.90;;
21519;SDS011;10921;53.614;9.882;2023-05-07T03:04:35;24.42;;;22.02;;
21519;SDS011;10921;53.614;9.882;2023-05-07T03:07:02;23.25;;;21.05;;
21519;SDS011;10921;53.614;9.882;2023-05-07T03:09:28;22.30;;;20.05;;
21519;SDS011;10921;53.614;9.882;2023-05-07T03:11:56;22.83;;;20.73;;
21519;SDS011;10921;53.614;9.882;2023-05-07T03:14:22;24.70;;;22.02;;
21519;SDS011;10921;53.614;9.882;2023-05-07T03:16:49;30.38;;;23.13;;
21519;SDS011;10921;53.614;9.882;2023-05-07T03:19:16;24.67;;;22.17;;
21519;SDS011;10921;53.614;9.882;2023-05-07T03:21:42;23.80;;;21.45;;
21519;SDS011;10921;53.614;9.882;2023-05-07T03:24:09;23.88;;;21.48;;
21519;SDS011;10921;53.614;9.882;2023-05-07T03:26:36;25.13;;;22.55;;
21519;SDS011;10921;53.614;9.882;2023-05-07T03:29:02;24.15;;;21.75;;
21519;SDS011;10921;53.614;9.882;2023-05-07T03:31:29;25.25;;;22.83;;
21519;SDS011;10921;53.614;9.882;2023-05-07T03:33:56;22.17;;;19.58;;
21519;SDS011;10921;53.614;9.882;2023-05-07T03:36:23;24.58;;;21.50;;
21519;SDS011;10921;53.614;9.882;2023-05-07T03:38:51;25.67;;;22.52;;
21519;SDS011;10921;53.614;9.882;2023-05-07T03:41:17;23.05;;;20.55;;
21519;SDS011;10921;53.614;9.882;2023-05-07T03:43:44;25.42;;;21.40;;
21519;SDS011;10921;53.614;9.882;2023-05-07T03:46:10;23.83;;;19.88;;
21519;SDS011;10921;53.614;9.882;2023-05-07T03:48:37;21.20;;;18.35;;
21519;SDS011;10921;53.614;9.882;2023-05-07T03:51:04;23.85;;;20.42;;
21519;SDS011;10921;53.614;9.882;2023-05-07T03:53:30;23.50;;;21.08;;
21519;SDS011;10921;53.614;9.882;2023-05-07T03:55:56;25.08;;;20.42;;
21519;SDS011;10921;53.614;9.882;2023-05-07T03:58:23;23.02;;;20.52;;
21519;SDS011;10921;53.614;9.882;2023-05-07T04:00:49;21.27;;;19.10;;
21519;SDS011;10921;53.614;9.882;2023-05-07T04:03:16;22.75;;;19.90;;
21519;SDS011;10921;53.614;9.882;2023-05-07T04:05:43;21.17;;;19.02;;
21519;SDS011;10921;53.614;9.882;2023-05-07T04:08:10;23.55;;;20.80;;
21519;SDS011;10921;53.614;9.882;2023-05-07T04:10:36;22.90;;;20.67;;
21519;SDS011;10921;53.614;9.882;2023-05-07T04:13:02;22.70;;;20.30;;
21519;SDS011;10921;53.614;9.882;2023-05-07T04:15:29;23.70;;;20.60;;
21519;SDS011;10921;53.614;9.882;2023-05-07T04:17:55;22.88;;;20.48;;
21519;SDS011;10921;53.614;9.882;2023-05-07T04:20:22;22.67;;;20.30;;
21519;SDS011;10921;53.614;9.882;2023-05-07T04:22:49;22.75;;;20.38;;
21519;SDS011;10921;53.614;9.882;2023-05-07T04:25:16;21.38;;;19.20;;
21519;SDS011;10921;53.614;9.882;2023-05-07T04:27:42;20.70;;;18.67;;
21519;SDS011;10921;53.614;9.882;2023-05-07T04:30:09;20.70;;;18.52;;
21519;SDS011;10921;53.614;9.882;2023-05-07T04:32:36;21.67;;;19.48;;
21519;SDS011;10921;53.614;9.882;2023-05-07T04:35:03;21.35;;;19.08;;
21519;SDS011;10921;53.614;9.882;2023-05-07T04:37:31;21.33;;;18.77;;
21519;SDS011;10921;53.614;9.882;2023-05-07T04:39:58;22.67;;;20.35;;
21519;SDS011;10921;53.614;9.882;2023-05-07T04:42:25;20.83;;;18.83;;
21519;SDS011;10921;53.614;9.882;2023-05-07T04:44:52;23.65;;;21.15;;
21519;SDS011;10921;53.614;9.882;2023-05-07T04:47:19;22.67;;;20.05;;
21519;SDS011;10921;53.614;9.882;2023-05-07T04:49:46;21.10;;;19.00;;
21519;SDS011;10921;53.614;9.882;2023-05-07T04:52:12;21.63;;;19.33;;
21519;SDS011;10921;53.614;9.882;2023-05-07T04:54:39;22.75;;;20.35;;
21519;SDS011;10921;53.614;9.882;2023-05-07T04:57:06;21.08;;;18.73;;
21519;SDS011;10921;53.614;9.882;2023-05-07T04:59:32;21.73;;;19.27;;
21519;SDS011;10921;53.614;9.882;2023-05-07T05:01:59;20.98;;;18.75;;
21519;SDS011;10921;53.614;9.882;2023-05-07T05:04:26;24.60;;;20.70;;
21519;SDS011;10921;53.614;9.882;2023-05-07T05:06:52;19.85;;;17.88;;
21519;SDS011;10921;53.614;9.882;2023-05-07T05:09:19;19.48;;;17.48;;
21519;SDS011;10921;53.614;9.882;2023-05-07T05:11:45;22.75;;;20.00;;
21519;SDS011;10921;53.614;9.882;2023-05-07T05:14:12;20.38;;;18.27;;
21519;SDS011;10921;53.614;9.882;2023-05-07T05:16:39;20.92;;;18.73;;
21519;SDS011;10921;53.614;9.882;2023-05-07T05:19:05;20.38;;;18.25;;
21519;SDS011;10921;53.614;9.882;2023-05-07T05:21:32;18.95;;;17.05;;
21519;SDS011;10921;53.614;9.882;2023-05-07T05:23:58;19.95;;;17.92;;
21519;SDS011;10921;53.614;9.882;2023-05-07T05:26:25;21.35;;;19.15;;
21519;SDS011;10921;53.614;9.882;2023-05-07T05:28:51;19.85;;;17.85;;
21519;SDS011;10921;53.614;9.882;2023-05-07T05:31:18;20.23;;;18.02;;
21519;SDS011;10921;53.614;9.882;2023-05-07T05:33:44;20.55;;;18.33;;
21519;SDS011;10921;53.614;9.882;2023-05-07T05:36:11;21.98;;;19.25;;
21519;SDS011;10921;53.614;9.882;2023-05-07T05:38:39;21.55;;;19.35;;
21519;SDS011;10921;53.614;9.882;2023-05-07T05:41:06;20.17;;;18.13;;
21519;SDS011;10921;53.614;9.882;2023-05-07T05:43:32;19.63;;;17.67;;
21519;SDS011;10921;53.614;9.882;2023-05-07T05:45:59;20.50;;;18.40;;
21519;SDS011;10921;53.614;9.882;2023-05-07T05:48:28;20.95;;;18.85;;
21519;SDS011;10921;53.614;9.882;2023-05-07T05:50:55;20.92;;;18.45;;
21519;SDS011;10921;53.614;9.882;2023-05-07T05:53:21;21.98;;;19.65;;
21519;SDS011;10921;53.614;9.882;2023-05-07T05:55:48;21.20;;;18.75;;
21519;SDS011;10921;53.614;9.882;2023-05-07T05:58:15;23.55;;;19.67;;
21519;SDS011;10921;53.614;9.882;2023-05-07T06:00:44;20.90;;;17.58;;
21519;SDS011;10921;53.614;9.882;2023-05-07T06:03:11;20.33;;;18.15;;
21519;SDS011;10921;53.614;9.882;2023-05-07T06:05:39;18.77;;;17.00;;
21519;SDS011;10921;53.614;9.882;2023-05-07T06:08:06;21.58;;;17.95;;
21519;SDS011;10921;53.614;9.882;2023-05-07T06:10:32;21.00;;;18.30;;
21519;SDS011;10921;53.614;9.882;2023-05-07T06:12:59;20.65;;;18.50;;
21519;SDS011;10921;53.614;9.882;2023-05-07T06:15:25;19.42;;;17.50;;
21519;SDS011;10921;53.614;9.882;2023-05-07T06:17:52;20.35;;;18.35;;
21519;SDS011;10921;53.614;9.882;2023-05-07T06:20:18;20.95;;;18.75;;
21519;SDS011;10921;53.614;9.882;2023-05-07T06:22:45;21.77;;;18.77;;
21519;SDS011;10921;53.614;9.882;2023-05-07T06:25:11;20.40;;;18.38;;
21519;SDS011;10921;53.614;9.882;2023-05-07T06:27:38;21.83;;;19.52;;
21519;SDS011;10921;53.614;9.882;2023-05-07T06:30:06;20.65;;;18.45;;
21519;SDS011;10921;53.614;9.882;2023-05-07T06:32:33;20.52;;;18.38;;
21519;SDS011;10921;53.614;9.882;2023-05-07T06:35:00;18.92;;;17.08;;
21519;SDS011;10921;53.614;9.882;2023-05-07T06:37:26;20.05;;;18.15;;
21519;SDS011;10921;53.614;9.882;2023-05-07T06:39:53;21.33;;;18.67;;
21519;SDS011;10921;53.614;9.882;2023-05-07T06:42:19;21.13;;;19.00;;
21519;SDS011;10921;53.614;9.882;2023-05-07T06:44:46;21.67;;;19.58;;
21519;SDS011;10921;53.614;9.882;2023-05-07T06:47:12;20.30;;;18.35;;
21519;SDS011;10921;53.614;9.882;2023-05-07T06:49:41;20.60;;;18.60;;
21519;SDS011;10921;53.614;9.882;2023-05-07T06:52:08;20.95;;;18.70;;
21519;SDS011;10921;53.614;9.882;2023-05-07T06:54:34;21.85;;;19.23;;
21519;SDS011;10921;53.614;9.882;2023-05-07T06:57:01;24.65;;;18.80;;
21519;SDS011;10921;53.614;9.882;2023-05-07T06:59:27;22.25;;;18.10;;
21519;SDS011;10921;53.614;9.882;2023-05-07T07:01:54;22.02;;;18.30;;
21519;SDS011;10921;53.614;9.882;2023-05-07T07:04:20;19.67;;;17.73;;
21519;SDS011;10921;53.614;9.882;2023-05-07T07:06:49;18.85;;;16.98;;
21519;SDS011;10921;53.614;9.882;2023-05-07T07:09:15;18.60;;;16.80;;
21519;SDS011;10921;53.614;9.882;2023-05-07T07:11:42;19.63;;;17.63;;
21519;SDS011;10921;53.614;9.882;2023-05-07T07:14:08;18.73;;;16.88;;
21519;SDS011;10921;53.614;9.882;2023-05-07T07:16:34;23.08;;;17.77;;
21519;SDS011;10921;53.614;9.882;2023-05-07T07:19:01;19.30;;;17.35;;
21519;SDS011;10921;53.614;9.882;2023-05-07T07:21:27;19.00;;;16.92;;
21519;SDS011;10921;53.614;9.882;2023-05-07T07:23:54;18.77;;;16.98;;
21519;SDS011;10921;53.614;9.882;2023-05-07T07:26:20;18.70;;;16.35;;
21519;SDS011;10921;53.614;9.882;2023-05-07T07:28:47;18.05;;;16.08;;
21519;SDS011;10921;53.614;9.882;2023-05-07T07:31:14;17.70;;;15.95;;
21519;SDS011;10921;53.614;9.882;2023-05-07T07:33:41;17.27;;;15.68;;
21519;SDS011;10921;53.614;9.882;2023-05-07T07:36:08;18.45;;;16.63;;
21519;SDS011;10921;53.614;9.882;2023-05-07T07:38:34;17.35;;;15.65;;
21519;SDS011;10921;53.614;9.882;2023-05-07T07:41:01;21.23;;;16.40;;
21519;SDS011;10921;53.614;9.882;2023-05-07T07:43:27;17.90;;;16.05;;
21519;SDS011;10921;53.614;9.882;2023-05-07T07:45:55;16.73;;;15.13;;
21519;SDS011;10921;53.614;9.882;2023-05-07T07:48:21;17.00;;;15.30;;
21519;SDS011;10921;53.614;9.882;2023-05-07T07:50:48;17.35;;;15.70;;
21519;SDS011;10921;53.614;9.882;2023-05-07T07:53:16;16.92;;;15.27;;
21519;SDS011;10921;53.614;9.882;2023-05-07T07:55:43;16.63;;;14.95;;
21519;SDS011;10921;53.614;9.882;2023-05-07T07:58:10;17.60;;;15.90;;
21519;SDS011;10921;53.614;9.882;2023-05-07T08:00:36;18.13;;;16.40;;
21519;SDS011;10921;53.614;9.882;2023-05-07T08:03:02;16.42;;;15.02;;
21519;SDS011;10921;53.614;9.882;2023-05-07T08:05:29;16.77;;;15.27;;
21519;SDS011;10921;53.614;9.882;2023-05-07T08:07:56;17.27;;;15.52;;
21519;SDS011;10921;53.614;9.882;2023-05-07T08:10:22;21.52;;;15.60;;
21519;SDS011;10921;53.614;9.882;2023-05-07T08:12:49;15.93;;;14.48;;
21519;SDS011;10921;53.614;9.882;2023-05-07T08:15:16;16.00;;;14.45;;
21519;SDS011;10921;53.614;9.882;2023-05-07T08:17:43;16.13;;;14.52;;
21519;SDS011;10921;53.614;9.882;2023-05-07T08:20:10;17.10;;;14.85;;
21519;SDS011;10921;53.614;9.882;2023-05-07T08:22:37;18.38;;;16.48;;
21519;SDS011;10921;53.614;9.882;2023-05-07T08:25:04;15.55;;;13.95;;
21519;SDS011;10921;53.614;9.882;2023-05-07T08:27:33;16.70;;;14.93;;
21519;SDS011;10921;53.614;9.882;2023-05-07T08:30:00;15.65;;;14.15;;
21519;SDS011;10921;53.614;9.882;2023-05-07T08:32:26;15.65;;;14.23;;
21519;SDS011;10921;53.614;9.882;2023-05-07T08:34:53;16.65;;;14.98;;
21519;SDS011;10921;53.614;9.882;2023-05-07T08:37:20;15.88;;;14.25;;
21519;SDS011;10921;53.614;9.882;2023-05-07T08:39:46;16.30;;;14.60;;
21519;SDS011;10921;53.614;9.882;2023-05-07T08:42:13;16.83;;;15.13;;
21519;SDS011;10921;53.614;9.882;2023-05-07T08:44:45;15.85;;;14.35;;
21519;SDS011;10921;53.614;9.882;2023-05-07T08:47:15;15.75;;;14.25;;
21519;SDS011;10921;53.614;9.882;2023-05-07T08:49:42;15.30;;;13.70;;
21519;SDS011;10921;53.614;9.882;2023-05-07T08:52:09;16.60;;;14.85;;
21519;SDS011;10921;53.614;9.882;2023-05-07T08:54:37;16.15;;;14.55;;
21519;SDS011;10921;53.614;9.882;2023-05-07T08:57:06;15.43;;;13.97;;
21519;SDS011;10921;53.614;9.882;2023-05-07T08:59:33;16.13;;;14.13;;
21519;SDS011;10921;53.614;9.882;2023-05-07T09:01:59;16.25;;;14.63;;
21519;SDS011;10921;53.614;9.882;2023-05-07T09:04:26;15.93;;;14.55;;
21519;SDS011;10921;53.614;9.882;2023-05-07T09:06:53;16.20;;;14.60;;
21519;SDS011;10921;53.614;9.882;2023-05-07T09:09:21;16.00;;;14.50;;
21519;SDS011;10921;53.614;9.882;2023-05-07T09:11:47;15.82;;;14.38;;
21519;SDS011;10921;53.614;9.882;2023-05-07T09:14:14;16.83;;;15.23;;
21519;SDS011;10921;53.614;9.882;2023-05-07T09:16:40;17.63;;;15.93;;
21519;SDS011;10921;53.614;9.882;2023-05-07T09:19:07;16.25;;;14.65;;
21519;SDS011;10921;53.614;9.882;2023-05-07T09:21:34;16.05;;;14.45;;
21519;SDS011;10921;53.614;9.882;2023-05-07T09:24:01;17.25;;;15.65;;
21519;SDS011;10921;53.614;9.882;2023-05-07T09:26:27;17.08;;;15.50;;
21519;SDS011;10921;53.614;9.882;2023-05-07T09:29:00;19.35;;;17.35;;
21519;SDS011;10921;53.614;9.882;2023-05-07T09:31:27;18.45;;;16.85;;
21519;SDS011;10921;53.614;9.882;2023-05-07T09:33:53;19.08;;;17.40;;
21519;SDS011;10921;53.614;9.882;2023-05-07T09:36:22;19.50;;;17.70;;
21519;SDS011;10921;53.614;9.882;2023-05-07T09:38:48;19.40;;;17.40;;
21519;SDS011;10921;53.614;9.882;2023-05-07T09:41:17;19.90;;;17.90;;
21519;SDS011;10921;53.614;9.882;2023-05-07T09:43:45;19.30;;;17.60;;
21519;SDS011;10921;53.614;9.882;2023-05-07T09:46:13;19.83;;;18.08;;
21519;SDS011;10921;53.614;9.882;2023-05-07T09:48:43;19.83;;;17.85;;
21519;SDS011;10921;53.614;9.882;2023-05-07T09:51:13;19.70;;;17.88;;
21519;SDS011;10921;53.614;9.882;2023-05-07T09:53:47;19.75;;;17.92;;
21519;SDS011;10921;53.614;9.882;2023-05-07T09:56:14;20.05;;;18.45;;
21519;SDS011;10921;53.614;9.882;2023-05-07T09:58:42;20.02;;;18.20;;
21519;SDS011;10921;53.614;9.882;2023-05-07T10:01:10;19.23;;;17.63;;
21519;SDS011;10921;53.614;9.882;2023-05-07T10:03:41;19.48;;;17.67;;
21519;SDS011;10921;53.614;9.882;2023-05-07T10:06:09;18.63;;;17.13;;
21519;SDS011;10921;53.614;9.882;2023-05-07T10:08:36;19.00;;;17.40;;
21519;SDS011;10921;53.614;9.882;2023-05-07T10:11:04;18.83;;;17.13;;
21519;SDS011;10921;53.614;9.882;2023-05-07T10:13:35;18.77;;;17.27;;
21519;SDS011;10921;53.614;9.882;2023-05-07T10:16:03;18.95;;;17.35;;
21519;SDS011;10921;53.614;9.882;2023-05-07T10:18:31;18.60;;;16.90;;
21519;SDS011;10921;53.614;9.882;2023-05-07T10:21:04;18.83;;;16.88;;
21519;SDS011;10921;53.614;9.882;2023-05-07T10:23:34;18.38;;;16.67;;
21519;SDS011;10921;53.614;9.882;2023-05-07T10:26:05;17.77;;;16.38;;
21519;SDS011;10921;53.614;9.882;2023-05-07T10:31:11;18.05;;;16.55;;
21519;SDS011;10921;53.614;9.882;2023-05-07T10:33:50;17.98;;;16.48;;
21519;SDS011;10921;53.614;9.882;2023-05-07T10:36:19;19.42;;;17.75;;
21519;SDS011;10921;53.614;9.882;2023-05-07T10:38:47;18.30;;;16.70;;
21519;SDS011;10921;53.614;9.882;2023-05-07T10:41:13;17.90;;;16.40;;
21519;SDS011;10921;53.614;9.882;2023-05-07T10:43:42;19.10;;;17.40;;
21519;SDS011;10921;53.614;9.882;2023-05-07T10:46:17;18.77;;;17.08;;
21519;SDS011;10921;53.614;9.882;2023-05-07T10:51:27;20.17;;;18.27;;
21519;SDS011;10921;53.614;9.882;2023-05-07T10:56:36;19.15;;;17.13;;
21519;SDS011;10921;53.614;9.882;2023-05-07T11:01:58;18.77;;;17.30;;
21519;SDS011;10921;53.614;9.882;2023-05-07T11:04:26;18.48;;;17.02;;
21519;SDS011;10921;53.614;9.882;2023-05-07T11:15:02;19.95;;;18.15;;
21519;SDS011;10921;53.614;9.882;2023-05-07T11:17:33;18.45;;;16.77;;
21519;SDS011;10921;53.614;9.882;2023-05-07T11:20:17;19.25;;;17.65;;
21519;SDS011;10921;53.614;9.882;2023-05-07T11:22:44;20.27;;;18.33;;
21519;SDS011;10921;53.614;9.882;2023-05-07T11:25:11;19.83;;;18.02;;
21519;SDS011;10921;53.614;9.882;2023-05-07T11:27:44;21.67;;;19.60;;
21519;SDS011;10921;53.614;9.882;2023-05-07T11:30:16;21.75;;;20.15;;
21519;SDS011;10921;53.614;9.882;2023-05-07T11:32:46;22.25;;;20.48;;
21519;SDS011;10921;53.614;9.882;2023-05-07T11:35:13;19.77;;;18.17;;
21519;SDS011;10921;53.614;9.882;2023-05-07T11:37:41;21.10;;;19.30;;
21519;SDS011;10921;53.614;9.882;2023-05-07T11:40:10;20.65;;;18.98;;
21519;SDS011;10921;53.614;9.882;2023-05-07T11:42:38;20.48;;;18.92;;
21519;SDS011;10921;53.614;9.882;2023-05-07T11:45:06;22.25;;;20.55;;
21519;SDS011;10921;53.614;9.882;2023-05-07T11:47:33;19.75;;;18.10;;
21519;SDS011;10921;53.614;9.882;2023-05-07T11:50:04;17.13;;;15.80;;
21519;SDS011;10921;53.614;9.882;2023-05-07T11:52:33;18.08;;;16.67;;
21519;SDS011;10921;53.614;9.882;2023-05-07T11:55:01;18.83;;;17.33;;
21519;SDS011;10921;53.614;9.882;2023-05-07T11:57:29;20.55;;;19.02;;
21519;SDS011;10921;53.614;9.882;2023-05-07T11:59:56;20.13;;;18.60;;
21519;SDS011;10921;53.614;9.882;2023-05-07T12:02:24;19.85;;;18.27;;
21519;SDS011;10921;53.614;9.882;2023-05-07T12:04:52;19.15;;;17.55;;
21519;SDS011;10921;53.614;9.882;2023-05-07T12:07:19;18.48;;;16.85;;
21519;SDS011;10921;53.614;9.882;2023-05-07T12:09:46;20.13;;;18.63;;
21519;SDS011;10921;53.614;9.882;2023-05-07T12:12:16;18.60;;;17.05;;
21519;SDS011;10921;53.614;9.882;2023-05-07T12:14:44;19.15;;;17.60;;
21519;SDS011;10921;53.614;9.882;2023-05-07T12:17:12;19.83;;;18.05;;
21519;SDS011;10921;53.614;9.882;2023-05-07T12:19:41;20.13;;;18.42;;
21519;SDS011;10921;53.614;9.882;2023-05-07T12:22:09;20.27;;;18.73;;
21519;SDS011;10921;53.614;9.882;2023-05-07T12:24:46;19.23;;;17.77;;
21519;SDS011;10921;53.614;9.882;2023-05-07T12:27:14;18.98;;;17.52;;
21519;SDS011;10921;53.614;9.882;2023-05-07T12:29:46;19.95;;;18.38;;
21519;SDS011;10921;53.614;9.882;2023-05-07T12:32:14;19.88;;;18.38;;
21519;SDS011;10921;53.614;9.882;2023-05-07T12:34:41;18.88;;;17.48;;
21519;SDS011;10921;53.614;9.882;2023-05-07T12:37:13;19.07;;;17.50;;
21519;SDS011;10921;53.614;9.882;2023-05-07T12:40:02;18.40;;;16.73;;
21519;SDS011;10921;53.614;9.882;2023-05-07T12:42:35;15.18;;;14.00;;
21519;SDS011;10921;53.614;9.882;2023-05-07T12:45:12;15.63;;;14.10;;
21519;SDS011;10921;53.614;9.882;2023-05-07T12:47:43;15.13;;;13.73;;
21519;SDS011;10921;53.614;9.882;2023-05-07T12:50:11;17.35;;;15.85;;
21519;SDS011;10921;53.614;9.882;2023-05-07T12:52:40;15.88;;;14.70;;
21519;SDS011;10921;53.614;9.882;2023-05-07T12:55:07;15.38;;;13.88;;
21519;SDS011;10921;53.614;9.882;2023-05-07T12:57:52;15.52;;;14.32;;
21519;SDS011;10921;53.614;9.882;2023-05-07T13:00:38;15.40;;;14.30;;
21519;SDS011;10921;53.614;9.882;2023-05-07T13:03:05;16.52;;;15.15;;
21519;SDS011;10921;53.614;9.882;2023-05-07T13:05:31;15.63;;;14.35;;
21519;SDS011;10921;53.614;9.882;2023-05-07T13:07:58;16.08;;;14.88;;
21519;SDS011;10921;53.614;9.882;2023-05-07T13:10:25;15.68;;;14.48;;
21519;SDS011;10921;53.614;9.882;2023-05-07T13:12:52;15.27;;;14.15;;
21519;SDS011;10921;53.614;9.882;2023-05-07T13:15:19;15.75;;;14.65;;
21519;SDS011;10921;53.614;9.882;2023-05-07T13:17:46;15.40;;;14.07;;
21519;SDS011;10921;53.614;9.882;2023-05-07T13:20:12;14.23;;;13.25;;
21519;SDS011;10921;53.614;9.882;2023-05-07T13:22:39;14.18;;;13.25;;
21519;SDS011;10921;53.614;9.882;2023-05-07T13:25:06;14.00;;;12.90;;
21519;SDS011;10921;53.614;9.882;2023-05-07T13:27:33;15.80;;;14.60;;
21519;SDS011;10921;53.614;9.882;2023-05-07T13:30:03;15.75;;;14.65;;
21519;SDS011;10921;53.614;9.882;2023-05-07T13:32:30;16.77;;;15.48;;
21519;SDS011;10921;53.614;9.882;2023-05-07T13:34:57;16.33;;;15.10;;
21519;SDS011;10921;53.614;9.882;2023-05-07T13:37:24;15.82;;;14.77;;
21519;SDS011;10921;53.614;9.882;2023-05-07T13:39:50;15.60;;;14.50;;
21519;SDS011;10921;53.614;9.882;2023-05-07T13:42:17;15.55;;;14.48;;
21519;SDS011;10921;53.614;9.882;2023-05-07T13:44:43;15.30;;;14.10;;
21519;SDS011;10921;53.614;9.882;2023-05-07T13:47:10;14.95;;;13.85;;
21519;SDS011;10921;53.614;9.882;2023-05-07T13:49:37;15.30;;;14.02;;
21519;SDS011;10921;53.614;9.882;2023-05-07T13:52:03;14.57;;;13.50;;
21519;SDS011;10921;53.614;9.882;2023-05-07T13:54:30;14.60;;;13.60;;
21519;SDS011;10921;53.614;9.882;2023-05-07T13:56:56;14.98;;;13.88;;
21519;SDS011;10921;53.614;9.882;2023-05-07T13:59:24;15.15;;;14.00;;
21519;SDS011;10921;53.614;9.882;2023-05-07T14:01:50;16.05;;;14.82;;
21519;SDS011;10921;53.614;9.882;2023-05-07T14:04:16;14.45;;;13.45;;
21519;SDS011;10921;53.614;9.882;2023-05-07T14:06:43;15.43;;;14.35;;
21519;SDS011;10921;53.614;9.882;2023-05-07T14:09:09;16.20;;;14.93;;
21519;SDS011;10921;53.614;9.882;2023-05-07T14:11:38;16.25;;;15.02;;
21519;SDS011;10921;53.614;9.882;2023-05-07T14:14:05;15.73;;;14.63;;
21519;SDS011;10921;53.614;9.882;2023-05-07T14:16:31;16.85;;;15.70;;
21519;SDS011;10921;53.614;9.882;2023-05-07T14:18:58;13.93;;;13.02;;
21519;SDS011;10921;53.614;9.882;2023-05-07T14:21:24;16.58;;;15.38;;
21519;SDS011;10921;53.614;9.882;2023-05-07T14:23:51;15.90;;;14.68;;
21519;SDS011;10921;53.614;9.882;2023-05-07T14:26:18;16.02;;;14.95;;
21519;SDS011;10921;53.614;9.882;2023-05-07T14:28:45;15.90;;;14.85;;
21519;SDS011;10921;53.614;9.882;2023-05-07T14:31:12;13.80;;;12.80;;
21519;SDS011;10921;53.614;9.882;2023-05-07T14:33:39;16.38;;;15.23;;
21519;SDS011;10921;53.614;9.882;2023-05-07T14:36:07;16.13;;;15.02;;
21519;SDS011;10921;53.614;9.882;2023-05-07T14:38:34;16.00;;;14.90;;
21519;SDS011;10921;53.614;9.882;2023-05-07T14:41:00;14.38;;;13.27;;